Time;durP1;ratioP1;P1;durP2;ratioP2;P2;SDS_P1;SDS_P2;PMS_P1;PMS_P2;Temp;Humidity;BMP_temperature;BMP_pressure;BME280_temperature;BME280_humidity;BME280_pressure;Samples;Min_cycle;Max_cycle;Signal;HPM_P1;HPM_P2
2022/10/28 00:01:38;;;;;;;13.50;9.57;;;13.50;1.00;;;;;;6314447;22;20422;-82
2022/10/28 00:04:08;;;;;;;13.10;10.00;;;13.50;1.00;;;;;;6315221;22;20409;-78
2022/10/28 00:06:37;;;;;;;13.57;9.93;;;13.60;1.00;;;;;;6314766;22;20423;-81
2022/10/28 00:09:06;;;;;;;13.40;9.57;;;13.60;1.00;;;;;;6315212;22;20428;-81
2022/10/28 00:11:35;;;;;;;13.07;10.10;;;13.70;1.00;;;;;;6316435;22;20423;-79
2022/10/28 00:14:05;;;;;;;11.90;9.13;;;13.70;1.00;;;;;;6319470;22;20441;-80
2022/10/28 00:16:37;;;;;;;12.83;9.70;;;13.70;1.00;;;;;;6319050;22;20496;-81
2022/10/28 00:19:07;;;;;;;14.60;10.50;;;13.80;1.00;;;;;;6312860;22;20420;-83
2022/10/28 00:21:36;;;;;;;11.00;9.10;;;13.70;1.00;;;;;;6319208;22;20523;-83
2022/10/28 00:24:06;;;;;;;11.77;9.30;;;13.70;1.00;;;;;;6291831;22;20392;-84
2022/10/28 00:26:36;;;;;;;11.10;9.23;;;13.80;1.00;;;;;;6321299;22;20416;-84
2022/10/28 00:29:07;;;;;;;11.57;10.20;;;13.80;1.00;;;;;;6320923;22;20427;-81
2022/10/28 00:31:36;;;;;;;14.27;10.37;;;13.80;1.00;;;;;;6294460;22;20528;-83
2022/10/28 00:34:07;;;;;;;13.30;9.13;;;13.90;1.00;;;;;;6322058;22;20392;-83
2022/10/28 00:36:35;;;;;;;11.60;9.47;;;14.00;1.00;;;;;;6328126;22;20892;-84
2022/10/28 00:39:11;;;;;;;11.67;10.20;;;13.90;1.00;;;;;;6322780;22;21214;-82
2022/10/28 00:41:44;;;;;;;12.87;8.77;;;13.90;1.00;;;;;;6320613;22;20385;-85
2022/10/28 00:44:54;;;;;;;11.00;9.40;;;14.00;1.00;;;;;;6317477;22;20472;-81
2022/10/28 00:47:53;;;;;;;13.27;9.63;;;14.00;1.00;;;;;;6283274;22;20475;-80
2022/10/28 00:50:33;;;;;;;13.13;9.80;;;14.00;1.00;;;;;;6312572;22;20424;-80
2022/10/28 00:53:04;;;;;;;14.10;9.63;;;14.10;1.00;;;;;;6313870;22;20385;-80
2022/10/28 00:55:36;;;;;;;13.73;10.70;;;14.10;1.00;;;;;;6314673;22;21192;-82
2022/10/28 00:58:05;;;;;;;13.57;9.00;;;14.00;1.00;;;;;;6314849;22;20431;-80
2022/10/28 01:00:33;;;;;;;10.90;9.00;;;13.90;1.00;;;;;;6316951;22;20418;-82
2022/10/28 01:03:03;;;;;;;14.97;10.90;;;13.90;1.00;;;;;;6313605;22;20413;-81
2022/10/28 01:05:37;;;;;;;13.73;9.83;;;13.90;1.00;;;;;;6314976;22;20425;-81
2022/10/28 01:08:05;;;;;;;13.93;10.10;;;13.80;1.00;;;;;;6315403;22;20408;-80
2022/10/28 01:10:57;;;;;;;12.83;9.53;;;13.80;1.00;;;;;;6315802;22;20400;-79
2022/10/28 01:13:37;;;;;;;11.40;9.60;;;13.90;1.00;;;;;;6314180;22;21212;-82
2022/10/28 01:16:11;;;;;;;12.90;9.47;;;13.90;1.00;;;;;;6314081;22;20942;-81
2022/10/28 01:18:57;;;;;;;10.73;9.17;;;13.90;1.00;;;;;;6313697;22;21226;-80
2022/10/28 01:22:04;;;;;;;11.80;8.77;;;13.90;1.00;;;;;;6314544;22;20421;-82
2022/10/28 01:24:50;;;;;;;10.80;8.97;;;14.00;1.00;;;;;;6314993;22;20498;-81
2022/10/28 01:28:05;;;;;;;12.33;8.90;;;14.00;1.00;;;;;;6314815;22;20442;-82
2022/10/28 01:30:45;;;;;;;12.57;9.43;;;14.10;1.00;;;;;;6294518;22;20445;-80
2022/10/28 01:33:26;;;;;;;10.73;8.87;;;14.00;1.00;;;;;;6313379;22;21142;-81
2022/10/28 01:35:58;;;;;;;13.43;9.57;;;14.00;1.00;;;;;;6314238;22;20900;-81
2022/10/28 01:38:32;;;;;;;12.27;8.23;;;14.00;1.00;;;;;;6313604;22;20559;-81
2022/10/28 01:41:08;;;;;;;10.40;9.30;;;14.00;1.00;;;;;;6316044;22;20450;-81
2022/10/28 01:43:45;;;;;;;10.50;8.83;;;14.00;1.00;;;;;;6316882;22;20423;-82
2022/10/28 01:46:16;;;;;;;11.97;8.50;;;14.00;1.00;;;;;;6315725;22;20513;-81
2022/10/28 01:48:49;;;;;;;11.20;9.40;;;13.90;1.00;;;;;;6314261;22;20428;-82
2022/10/28 01:51:21;;;;;;;11.13;8.80;;;13.90;1.00;;;;;;6315519;22;20599;-81
2022/10/28 01:53:53;;;;;;;14.43;9.40;;;13.90;1.00;;;;;;6315290;22;20950;-82
2022/10/28 01:56:25;;;;;;;11.27;9.07;;;13.80;1.00;;;;;;6315876;22;20467;-80
2022/10/28 01:58:58;;;;;;;13.07;8.93;;;13.80;1.00;;;;;;6304258;22;20406;-79
2022/10/28 02:01:27;;;;;;;10.83;9.40;;;13.70;1.00;;;;;;6334400;22;20415;-80
2022/10/28 02:03:56;;;;;;;13.50;8.90;;;13.80;1.00;;;;;;6313351;22;20414;-82
2022/10/28 02:06:27;;;;;;;12.07;8.70;;;13.80;1.00;;;;;;6313952;22;20440;-82
2022/10/28 02:09:04;;;;;;;15.60;10.00;;;13.80;1.00;;;;;;6311530;22;20428;-82
2022/10/28 02:12:16;;;;;;;10.93;8.60;;;13.70;1.00;;;;;;6310641;22;20442;-82
2022/10/28 02:15:05;;;;;;;12.10;9.33;;;13.60;1.00;;;;;;6184639;22;20774;-81
2022/10/28 02:17:42;;;;;;;12.20;9.60;;;13.60;1.00;;;;;;6307656;22;20434;-82
2022/10/28 02:20:18;;;;;;;12.10;9.07;;;13.60;1.00;;;;;;6271644;22;20436;-82
2022/10/28 02:22:49;;;;;;;13.43;10.03;;;13.60;1.00;;;;;;6311988;22;20615;-82
2022/10/28 02:25:21;;;;;;;12.60;9.20;;;13.60;1.00;;;;;;6312517;22;20432;-81
2022/10/28 02:27:51;;;;;;;12.13;8.03;;;13.60;1.00;;;;;;6314622;22;20515;-82
2022/10/28 02:30:28;;;;;;;11.33;9.53;;;13.60;1.00;;;;;;6313389;22;20452;-80
2022/10/28 02:32:59;;;;;;;12.07;10.13;;;13.60;1.00;;;;;;6313038;22;20416;-81
2022/10/28 02:35:32;;;;;;;12.03;9.37;;;13.60;1.00;;;;;;6313956;22;20425;-82
2022/10/28 02:38:02;;;;;;;13.00;9.63;;;13.60;1.00;;;;;;6312635;22;20488;-81
2022/10/28 02:40:34;;;;;;;16.20;10.90;;;13.60;1.00;;;;;;6315092;22;20412;-81
2022/10/28 02:43:08;;;;;;;13.50;9.57;;;13.60;1.00;;;;;;6313362;22;20400;-80
2022/10/28 02:45:39;;;;;;;11.33;8.93;;;13.60;1.00;;;;;;6312191;22;20496;-81
2022/10/28 02:48:11;;;;;;;13.40;9.13;;;13.60;1.00;;;;;;6270361;22;20424;-81
2022/10/28 02:50:46;;;;;;;12.30;9.50;;;13.60;1.00;;;;;;6312481;22;20443;-82
2022/10/28 02:53:18;;;;;;;13.73;10.13;;;13.50;1.00;;;;;;6312579;22;20421;-81
2022/10/28 02:55:51;;;;;;;15.60;10.13;;;13.50;1.00;;;;;;6313447;22;21038;-82
2022/10/28 02:58:18;;;;;;;12.37;10.17;;;13.30;1.00;;;;;;6312211;22;20905;-82
2022/10/28 03:00:46;;;;;;;13.43;9.90;;;13.20;1.00;;;;;;6311941;22;20536;-81
2022/10/28 03:03:16;;;;;;;15.23;10.00;;;13.20;1.00;;;;;;6315064;22;20464;-80
2022/10/28 03:05:45;;;;;;;13.07;9.53;;;13.30;1.00;;;;;;6320297;22;20903;-80
2022/10/28 03:08:11;;;;;;;13.43;9.77;;;13.30;1.00;;;;;;6312535;22;20515;-80
2022/10/28 03:10:38;;;;;;;14.10;10.93;;;13.30;1.00;;;;;;6301412;22;20821;-81
2022/10/28 03:13:05;;;;;;;15.03;10.33;;;13.40;1.00;;;;;;6313958;22;20916;-80
2022/10/28 03:15:38;;;;;;;14.97;10.10;;;13.30;1.00;;;;;;6313625;22;20416;-81
2022/10/28 03:18:05;;;;;;;13.40;10.53;;;13.30;1.00;;;;;;6285716;22;20898;-80
2022/10/28 03:20:36;;;;;;;14.03;9.80;;;13.30;1.00;;;;;;6318952;22;20430;-81
2022/10/28 03:23:04;;;;;;;15.37;10.40;;;13.30;1.00;;;;;;6316367;22;20501;-81
2022/10/28 03:25:35;;;;;;;13.30;10.73;;;13.30;1.00;;;;;;6319968;22;20419;-80
2022/10/28 03:28:06;;;;;;;14.50;10.40;;;13.20;1.00;;;;;;6327659;22;20389;-84
2022/10/28 03:30:34;;;;;;;15.07;10.97;;;13.20;1.00;;;;;;6326978;22;20424;-81
2022/10/28 03:33:05;;;;;;;15.60;11.37;;;13.10;1.00;;;;;;6320816;22;20403;-80
2022/10/28 03:35:32;;;;;;;13.30;10.60;;;12.90;1.00;;;;;;6319049;22;20417;-80
2022/10/28 03:38:07;;;;;;;13.17;10.90;;;12.90;1.00;;;;;;6319386;22;20422;-84
2022/10/28 03:40:37;;;;;;;15.00;11.17;;;12.90;1.00;;;;;;6321078;22;21183;-82
2022/10/28 03:43:05;;;;;;;14.17;10.53;;;12.80;1.00;;;;;;6318822;22;20379;-83
2022/10/28 03:45:33;;;;;;;13.77;10.77;;;12.80;1.00;;;;;;6322033;22;20431;-82
2022/10/28 03:48:04;;;;;;;14.63;10.23;;;12.80;1.00;;;;;;6333981;22;20919;-84
2022/10/28 03:50:36;;;;;;;15.73;10.80;;;12.90;1.00;;;;;;6322048;22;20403;-86
2022/10/28 03:53:06;;;;;;;14.73;12.40;;;12.90;1.00;;;;;;6325290;22;20468;-81
2022/10/28 03:55:39;;;;;;;15.33;12.93;;;13.00;1.00;;;;;;6321130;22;20488;-84
2022/10/28 03:58:06;;;;;;;14.07;12.57;;;13.00;1.00;;;;;;6317338;22;20455;-80
2022/10/28 04:00:33;;;;;;;15.90;12.97;;;12.90;1.00;;;;;;6316662;22;20429;-81
2022/10/28 04:03:00;;;;;;;15.77;11.90;;;12.80;1.00;;;;;;6313181;22;20483;-80
2022/10/28 04:05:27;;;;;;;15.23;12.67;;;12.80;1.00;;;;;;6314141;22;20423;-81
2022/10/28 04:07:56;;;;;;;15.40;12.07;;;12.80;1.00;;;;;;6313983;22;21230;-81
2022/10/28 04:10:24;;;;;;;54.23;50.07;;;12.70;1.00;;;;;;6317195;22;20468;-81
2022/10/28 04:12:53;;;;;;;23.90;16.43;;;12.70;1.00;;;;;;6315682;22;20413;-81
2022/10/28 04:15:20;;;;;;;19.23;14.43;;;12.60;1.00;;;;;;6315928;22;20495;-82
2022/10/28 04:17:49;;;;;;;21.63;16.53;;;12.60;1.00;;;;;;6313449;22;20500;-80
2022/10/28 04:20:18;;;;;;;22.37;17.53;;;12.50;1.00;;;;;;6315599;22;20839;-79
2022/10/28 04:22:44;;;;;;;16.83;14.83;;;12.50;1.00;;;;;;6315627;22;20406;-79
2022/10/28 04:25:11;;;;;;;24.07;15.60;;;12.40;1.00;;;;;;6315925;22;20420;-80
2022/10/28 04:27:38;;;;;;;17.27;13.40;;;12.40;1.00;;;;;;6305212;22;20434;-79
2022/10/28 04:30:08;;;;;;;16.30;11.30;;;12.50;1.00;;;;;;6306555;22;20428;-80
2022/10/28 04:32:38;;;;;;;19.70;12.90;;;12.60;1.00;;;;;;6320527;22;20419;-80
2022/10/28 04:35:09;;;;;;;21.40;13.17;;;12.60;1.00;;;;;;6313872;22;21299;-82
2022/10/28 04:37:37;;;;;;;16.50;12.77;;;12.60;1.00;;;;;;6303842;22;20451;-80
2022/10/28 04:40:08;;;;;;;14.40;11.30;;;12.70;1.00;;;;;;6317573;22;20406;-81
2022/10/28 04:42:35;;;;;;;18.27;13.00;;;12.80;1.00;;;;;;6320251;22;20463;-83
2022/10/28 04:45:04;;;;;;;17.03;13.17;;;12.70;1.00;;;;;;6304390;22;20422;-80
2022/10/28 04:47:32;;;;;;;18.87;12.77;;;12.60;1.00;;;;;;6318497;22;20456;-81
2022/10/28 04:49:59;;;;;;;16.07;13.20;;;12.60;1.00;;;;;;6301418;22;20416;-80
2022/10/28 04:52:26;;;;;;;19.17;11.53;;;12.60;1.00;;;;;;6316163;22;20460;-81
2022/10/28 04:54:52;;;;;;;21.07;13.10;;;12.60;1.00;;;;;;6317545;22;20431;-80
2022/10/28 04:57:20;;;;;;;22.30;16.07;;;12.60;1.00;;;;;;6318694;22;20392;-78
2022/10/28 04:59:48;;;;;;;21.33;15.20;;;12.60;1.00;;;;;;6302911;22;20422;-80
2022/10/28 05:02:29;;;;;;;22.00;13.97;;;12.50;1.00;;;;;;6301557;22;21228;-80
2022/10/28 05:04:59;;;;;;;16.90;12.47;;;12.40;1.00;;;;;;6313267;22;20435;-80
2022/10/28 05:07:26;;;;;;;19.50;13.10;;;12.40;1.00;;;;;;6301132;22;20439;-80
2022/10/28 05:09:53;;;;;;;17.97;12.10;;;12.40;1.00;;;;;;6311997;22;20480;-79
2022/10/28 05:12:21;;;;;;;16.70;12.03;;;12.50;1.00;;;;;;6315679;22;20413;-81
2022/10/28 05:14:50;;;;;;;20.27;16.07;;;12.40;1.00;;;;;;6290644;22;20407;-81
2022/10/28 05:17:18;;;;;;;18.70;13.70;;;12.40;1.00;;;;;;6316175;22;20503;-81
2022/10/28 05:19:45;;;;;;;18.30;13.13;;;12.40;1.00;;;;;;6315766;22;20489;-81
2022/10/28 05:22:16;;;;;;;19.93;13.37;;;12.30;1.00;;;;;;6315501;22;20645;-82
2022/10/28 05:24:44;;;;;;;19.20;12.80;;;12.20;1.00;;;;;;6303669;22;20413;-82
2022/10/28 05:27:11;;;;;;;19.20;11.83;;;12.20;1.00;;;;;;6311248;22;20436;-81
2022/10/28 05:29:41;;;;;;;23.03;13.50;;;12.30;1.00;;;;;;6313620;22;20435;-82
2022/10/28 05:32:09;;;;;;;20.80;13.00;;;12.30;1.00;;;;;;6315021;22;20416;-82
2022/10/28 05:34:57;;;;;;;21.87;13.30;;;12.20;1.00;;;;;;6315164;22;20402;-84
2022/10/28 05:37:26;;;;;;;17.33;13.33;;;12.10;1.00;;;;;;6305290;22;20533;-82
2022/10/28 05:39:53;;;;;;;18.30;12.50;;;12.00;1.00;;;;;;6313660;22;20785;-81
2022/10/28 05:42:20;;;;;;;19.70;13.30;;;12.10;1.00;;;;;;6306515;22;20439;-80
2022/10/28 05:44:47;;;;;;;16.00;11.97;;;12.10;1.00;;;;;;6328175;22;20412;-81
2022/10/28 05:47:14;;;;;;;17.60;12.40;;;12.20;1.00;;;;;;6301370;22;20512;-81
2022/10/28 05:49:42;;;;;;;17.53;11.93;;;12.20;1.00;;;;;;6313334;22;20515;-81
2022/10/28 05:52:09;;;;;;;19.87;12.87;;;12.20;1.00;;;;;;6315171;22;20432;-80
2022/10/28 05:54:38;;;;;;;15.63;12.13;;;12.20;1.00;;;;;;6321052;22;20404;-82
2022/10/28 05:57:07;;;;;;;16.17;13.87;;;12.30;1.00;;;;;;6312594;22;21174;-82
2022/10/28 05:59:36;;;;;;;21.17;13.83;;;12.40;1.00;;;;;;6300265;22;20494;-80
2022/10/28 06:02:05;;;;;;;19.97;13.43;;;12.40;1.00;;;;;;6301722;22;20448;-82
2022/10/28 06:04:32;;;;;;;18.20;13.30;;;12.50;1.00;;;;;;6334246;22;20422;-80
2022/10/28 06:06:59;;;;;;;22.30;13.43;;;12.50;1.00;;;;;;6314162;22;20405;-80
2022/10/28 06:09:27;;;;;;;15.70;13.00;;;12.50;1.00;;;;;;6313769;22;20434;-81
2022/10/28 06:11:57;;;;;;;18.73;12.60;;;12.60;1.00;;;;;;6298937;22;20416;-81
2022/10/28 06:14:27;;;;;;;24.93;14.07;;;12.70;1.00;;;;;;6314645;22;20392;-80
2022/10/28 06:16:53;;;;;;;20.63;14.93;;;12.80;1.00;;;;;;6301129;22;21062;-79
2022/10/28 06:19:22;;;;;;;30.27;14.00;;;12.70;1.00;;;;;;6312440;22;20536;-80
2022/10/28 06:21:49;;;;;;;17.20;14.10;;;12.80;1.00;;;;;;6310787;22;20551;-80
2022/10/28 06:24:18;;;;;;;25.10;13.73;;;12.80;1.00;;;;;;6312134;22;20484;-80
2022/10/28 06:26:45;;;;;;;20.10;12.67;;;12.70;1.00;;;;;;6293531;22;20519;-79
2022/10/28 06:29:13;;;;;;;18.53;13.30;;;12.70;1.00;;;;;;6313657;22;20413;-80
2022/10/28 06:31:40;;;;;;;21.80;14.27;;;12.70;1.00;;;;;;6312685;22;20452;-80
2022/10/28 06:34:09;;;;;;;27.97;15.90;;;12.90;1.00;;;;;;6312705;22;20511;-79
2022/10/28 06:36:37;;;;;;;19.67;12.90;;;12.90;1.00;;;;;;6313909;22;20994;-80
2022/10/28 06:39:04;;;;;;;19.60;14.37;;;12.90;1.00;;;;;;6300947;22;20445;-80
2022/10/28 06:41:31;;;;;;;21.97;14.30;;;13.00;1.00;;;;;;6333451;22;20443;-80
2022/10/28 06:43:58;;;;;;;20.47;13.43;;;13.00;1.00;;;;;;6309827;22;20491;-79
2022/10/28 06:46:26;;;;;;;20.20;12.97;;;13.00;1.00;;;;;;6321143;22;20540;-80
2022/10/28 06:48:54;;;;;;;21.50;13.57;;;13.00;1.00;;;;;;6313553;22;20796;-80
2022/10/28 06:51:21;;;;;;;23.27;13.63;;;13.00;1.00;;;;;;6319940;22;20409;-80
2022/10/28 06:53:48;;;;;;;32.80;13.47;;;13.00;1.00;;;;;;6300607;22;20466;-82
2022/10/28 06:56:15;;;;;;;24.33;13.67;;;13.00;1.00;;;;;;6313624;22;20428;-80
2022/10/28 06:58:42;;;;;;;19.73;13.87;;;13.00;1.00;;;;;;6312119;22;20559;-81
2022/10/28 07:01:12;;;;;;;42.43;30.23;;;13.00;1.00;;;;;;6313171;22;20511;-79
2022/10/28 07:03:41;;;;;;;23.87;15.37;;;13.10;1.00;;;;;;6314553;22;20416;-78
2022/10/28 07:06:12;;;;;;;15.90;11.43;;;13.20;1.00;;;;;;6317397;22;20388;-83
2022/10/28 07:08:40;;;;;;;22.30;11.50;;;13.30;1.00;;;;;;6310951;22;20957;-79
2022/10/28 07:11:07;;;;;;;13.80;11.60;;;13.20;1.00;;;;;;6314787;22;20899;-80
2022/10/28 07:13:37;;;;;;;18.13;11.67;;;13.20;1.00;;;;;;6308438;22;20443;-79
2022/10/28 07:16:04;;;;;;;20.00;12.83;;;13.40;1.00;;;;;;6314946;22;20405;-80
2022/10/28 07:18:31;;;;;;;17.20;12.37;;;13.50;1.00;;;;;;6333737;22;20410;-79
2022/10/28 07:21:00;;;;;;;17.50;12.43;;;13.60;1.00;;;;;;6289331;22;20848;-84
2022/10/28 07:23:30;;;;;;;16.20;12.43;;;13.60;1.00;;;;;;6319739;22;20451;-81
2022/10/28 07:25:58;;;;;;;19.23;11.83;;;13.70;1.00;;;;;;6298766;22;20503;-82
2022/10/28 07:28:28;;;;;;;17.43;12.60;;;13.60;1.00;;;;;;6286298;22;20482;-80
2022/10/28 07:31:03;;;;;;;19.57;12.73;;;13.60;1.00;;;;;;6315044;22;21035;-81
2022/10/28 07:33:30;;;;;;;18.70;12.83;;;13.70;1.00;;;;;;6316322;22;20427;-81
2022/10/28 07:36:02;;;;;;;16.50;11.30;;;13.80;1.00;;;;;;6300840;22;20427;-80
2022/10/28 07:38:29;;;;;;;19.20;12.07;;;13.80;1.00;;;;;;6286771;22;20408;-82
2022/10/28 07:40:59;;;;;;;19.37;15.87;;;13.90;1.00;;;;;;6314521;22;20398;-82
2022/10/28 07:43:28;;;;;;;15.73;11.67;;;14.00;1.00;;;;;;6314338;22;20445;-80
2022/10/28 07:46:00;;;;;;;20.60;11.83;;;14.20;1.00;;;;;;6323362;22;20422;-79
2022/10/28 07:48:27;;;;;;;17.43;12.10;;;14.40;1.00;;;;;;6316161;22;21148;-80
2022/10/28 07:50:54;;;;;;;16.90;10.73;;;14.50;1.00;;;;;;6313226;22;20446;-80
2022/10/28 07:53:24;;;;;;;20.03;10.63;;;14.60;1.00;;;;;;6299642;22;20416;-81
2022/10/28 07:55:56;;;;;;;15.47;10.43;;;14.70;1.00;;;;;;6313217;22;20513;-81
2022/10/28 07:58:23;;;;;;;14.50;10.13;;;14.90;1.00;;;;;;6313220;22;20912;-82
2022/10/28 08:00:50;;;;;;;15.80;9.63;;;15.10;1.00;;;;;;6312249;22;20432;-81
2022/10/28 08:03:18;;;;;;;18.70;10.00;;;15.30;1.00;;;;;;6311831;22;20448;-82
2022/10/28 08:05:45;;;;;;;15.87;10.27;;;15.40;1.00;;;;;;6315681;22;20396;-82
2022/10/28 08:08:17;;;;;;;12.27;8.00;;;15.50;1.00;;;;;;6313626;22;20436;-81
2022/10/28 08:10:50;;;;;;;15.77;8.90;;;15.60;1.00;;;;;;6312993;22;20461;-80
2022/10/28 08:13:19;;;;;;;11.47;8.50;;;15.80;1.00;;;;;;6328024;22;20772;-81
2022/10/28 08:15:52;;;;;;;17.07;7.97;;;16.00;1.00;;;;;;6316538;22;20436;-83
2022/10/28 08:18:19;;;;;;;12.33;7.13;;;16.30;1.00;;;;;;6316407;22;20435;-82
2022/10/28 08:20:47;;;;;;;10.80;6.93;;;16.60;1.00;;;;;;6326129;22;20412;-81
2022/10/28 08:23:15;;;;;;;10.40;7.30;;;16.90;1.00;;;;;;6316986;22;20900;-81
2022/10/28 08:25:49;;;;;;;8.97;5.83;;;17.20;1.00;;;;;;6312225;22;20424;-81
2022/10/28 08:28:19;;;;;;;12.30;6.30;;;17.50;1.00;;;;;;6309647;22;20816;-80
2022/10/28 08:30:48;;;;;;;10.00;6.60;;;17.80;1.00;;;;;;6315686;22;20425;-82
2022/10/28 08:33:18;;;;;;;10.97;5.43;;;17.90;1.00;;;;;;6320775;22;20441;-85
2022/10/28 08:35:50;;;;;;;10.73;7.60;;;18.20;1.00;;;;;;6309080;22;20431;-82
2022/10/28 08:38:21;;;;;;;21.03;8.23;;;18.40;1.00;;;;;;6313158;22;20441;-82
2022/10/28 08:40:58;;;;;;;12.83;7.13;;;18.70;1.00;;;;;;6291415;22;20407;-81
2022/10/28 08:43:37;;;;;;;10.43;6.30;;;18.90;1.00;;;;;;6304823;22;20436;-84
2022/10/28 08:46:13;;;;;;;11.27;5.53;;;19.20;1.00;;;;;;6307396;22;20550;-86
2022/10/28 08:48:41;;;;;;;10.47;5.97;;;19.20;1.00;;;;;;6321010;22;20541;-82
2022/10/28 08:51:14;;;;;;;12.23;7.57;;;19.30;1.00;;;;;;6318895;22;20779;-84
2022/10/28 08:53:57;;;;;;;13.20;6.87;;;19.20;1.00;;;;;;6281542;22;20433;-83
2022/10/28 08:56:47;;;;;;;12.60;7.87;;;18.90;1.00;;;;;;6325156;22;20494;-81
2022/10/28 08:59:21;;;;;;;14.63;7.63;;;18.70;1.00;;;;;;6307064;22;20452;-83
2022/10/28 09:01:50;;;;;;;11.73;7.40;;;18.80;1.00;;;;;;6318607;22;20756;-84
2022/10/28 09:04:25;;;;;;;17.30;9.37;;;18.80;1.00;;;;;;6318693;22;20390;-84
2022/10/28 09:06:53;;;;;;;14.00;6.87;;;18.90;1.00;;;;;;6317806;22;20981;-85
2022/10/28 09:09:22;;;;;;;14.67;6.97;;;18.80;1.00;;;;;;6316905;22;20447;-85
2022/10/28 09:12:09;;;;;;;9.80;5.33;;;19.10;1.00;;;;;;6301765;22;20490;-84
2022/10/28 09:14:52;;;;;;;14.00;7.27;;;20.40;1.00;;;;;;6316376;22;20430;-82
2022/10/28 09:17:24;;;;;;;11.83;6.13;;;21.90;1.00;;;;;;6314644;22;20434;-83
2022/10/28 09:19:56;;;;;;;13.43;6.23;;;22.90;1.00;;;;;;6315471;22;20499;-83
2022/10/28 09:22:26;;;;;;;11.17;5.03;;;22.90;1.00;;;;;;6317293;22;20491;-84
2022/10/28 09:24:56;;;;;;;19.83;7.40;;;22.10;1.00;;;;;;6315450;22;20891;-83
2022/10/28 09:27:56;;;;;;;11.70;6.30;;;21.40;1.00;;;;;;6313967;22;20491;-82
2022/10/28 09:30:34;;;;;;;554.33;261.30;;;20.80;1.00;;;;;;6314780;22;20391;-82
2022/10/28 09:33:18;;;;;;;255.30;128.67;;;20.80;1.00;;;;;;6315809;22;20848;-83
2022/10/28 09:35:47;;;;;;;14.43;8.07;;;20.90;1.00;;;;;;6287782;22;20491;-84
2022/10/28 09:38:27;;;;;;;18.53;10.17;;;20.70;1.00;;;;;;6308815;22;20830;-82
2022/10/28 09:41:00;;;;;;;13.77;5.90;;;20.60;1.00;;;;;;6303571;22;20427;-82
2022/10/28 09:43:32;;;;;;;15.43;6.40;;;20.90;1.00;;;;;;6337141;22;20499;-82
2022/10/28 09:46:05;;;;;;;11.90;5.77;;;20.90;1.00;;;;;;6315677;22;20499;-83
2022/10/28 09:48:36;;;;;;;11.40;6.17;;;20.80;1.00;;;;;;6317625;22;21279;-83
2022/10/28 09:51:08;;;;;;;11.33;6.10;;;20.80;1.00;;;;;;6314303;22;20409;-82
2022/10/28 09:53:44;;;;;;;11.00;5.50;;;20.80;1.00;;;;;;6316713;22;20385;-84
2022/10/28 09:56:11;;;;;;;9.97;5.60;;;20.80;1.00;;;;;;6315459;22;20438;-85
2022/10/28 09:58:44;;;;;;;9.97;5.43;;;21.00;1.00;;;;;;6315244;22;20481;-83
2022/10/28 10:01:12;;;;;;;10.93;5.40;;;21.20;1.00;;;;;;6316700;22;20399;-82
2022/10/28 10:03:44;;;;;;;11.50;4.90;;;21.40;1.00;;;;;;6315338;22;20628;-82
2022/10/28 10:06:18;;;;;;;11.57;5.10;;;21.60;1.00;;;;;;6316801;22;20416;-82
2022/10/28 10:08:48;;;;;;;9.37;5.00;;;22.10;1.00;;;;;;6317579;22;20422;-83
2022/10/28 10:11:26;;;;;;;11.20;5.17;;;23.00;1.00;;;;;;6317906;22;20412;-82
2022/10/28 10:13:57;;;;;;;15.40;5.50;;;23.60;1.00;;;;;;6285919;22;20394;-85
2022/10/28 10:16:33;;;;;;;9.60;4.83;;;23.70;1.00;;;;;;6315975;22;20971;-81
2022/10/28 10:19:05;;;;;;;11.47;6.47;;;23.70;1.00;;;;;;6316095;22;20422;-84
2022/10/28 10:21:43;;;;;;;12.77;5.20;;;24.00;1.00;;;;;;6318876;22;20524;-84
2022/10/28 10:24:29;;;;;;;8.50;4.30;;;24.10;1.00;;;;;;6321751;22;20395;-83
2022/10/28 10:27:01;;;;;;;9.00;4.30;;;24.10;1.00;;;;;;6318492;22;20428;-83
2022/10/28 10:29:31;;;;;;;8.90;4.10;;;24.50;1.00;;;;;;6318190;22;20450;-82
2022/10/28 10:32:19;;;;;;;8.80;4.37;;;25.10;1.00;;;;;;6316449;22;25218;-81
2022/10/28 10:34:54;;;;;;;9.97;4.50;;;25.40;1.00;;;;;;6306214;22;20389;-82
2022/10/28 10:37:22;;;;;;;7.97;3.90;;;26.00;1.00;;;;;;6292455;22;20791;-82
2022/10/28 10:40:16;;;;;;;8.93;3.90;;;26.50;1.00;;;;;;6317126;22;20438;-82
2022/10/28 10:42:43;;;;;;;12.80;4.57;;;27.10;1.00;;;;;;6277086;22;20434;-81
2022/10/28 10:45:21;;;;;;;8.90;4.07;;;27.40;1.00;;;;;;6317520;22;20402;-83
2022/10/28 10:47:48;;;;;;;9.20;3.70;;;27.20;1.00;;;;;;6314588;22;20419;-81
2022/10/28 10:50:22;;;;;;;13.13;3.87;;;26.40;1.00;;;;;;6317451;22;20449;-83
2022/10/28 10:52:57;;;;;;;9.27;4.20;;;26.00;1.00;;;;;;6315701;22;20403;-81
2022/10/28 10:55:33;;;;;;;9.30;3.90;;;26.00;1.00;;;;;;6314679;22;20501;-82
2022/10/28 10:58:03;;;;;;;11.97;4.07;;;26.40;1.00;;;;;;6312883;22;20383;-79
2022/10/28 11:00:37;;;;;;;9.83;3.73;;;26.90;1.00;;;;;;6314123;22;20390;-81
2022/10/28 11:03:15;;;;;;;8.40;3.80;;;27.30;1.00;;;;;;6315983;22;20461;-79
2022/10/28 11:05:49;;;;;;;10.57;4.07;;;27.50;1.00;;;;;;6300483;22;20387;-79
2022/10/28 11:08:30;;;;;;;10.43;4.10;;;28.10;1.00;;;;;;6299509;22;20430;-79
2022/10/28 11:11:06;;;;;;;10.30;3.50;;;28.20;1.00;;;;;;6311642;22;20415;-78
2022/10/28 11:13:35;;;;;;;12.73;4.20;;;28.00;1.00;;;;;;6319612;22;20430;-81
2022/10/28 11:16:17;;;;;;;7.13;3.60;;;28.00;1.00;;;;;;6283093;22;20414;-82
2022/10/28 11:18:47;;;;;;;10.07;4.23;;;28.20;1.00;;;;;;6284946;22;20450;-79
2022/10/28 11:21:47;;;;;;;11.63;4.63;;;28.50;1.00;;;;;;6314680;22;20445;-79
2022/10/28 11:25:05;;;;;;;;;;;;;;;;;;;;;
2022/10/28 11:27:57;;;;;;;7.23;4.13;;;28.70;1.00;;;;;;6313014;22;49130;-83
2022/10/28 11:30:40;;;;;;;14.00;4.30;;;28.80;1.00;;;;;;6317342;22;20422;-80
2022/10/28 11:33:26;;;;;;;10.03;4.03;;;29.40;1.00;;;;;;6316180;22;20967;-88
2022/10/28 11:36:09;;;;;;;11.10;3.97;;;29.50;1.00;;;;;;6317666;22;20435;-82
2022/10/28 11:38:57;;;;;;;8.40;4.07;;;29.60;1.00;;;;;;6318961;22;20454;-79
2022/10/28 11:41:49;;;;;;;9.03;4.20;;;29.90;1.00;;;;;;6316460;22;20424;-83
2022/10/28 11:44:34;;;;;;;10.47;3.80;;;30.20;1.00;;;;;;6318551;22;20409;-83
2022/10/28 11:47:35;;;;;;;8.27;3.60;;;30.60;1.00;;;;;;6317838;22;20457;-82
2022/10/28 11:50:28;;;;;;;8.90;3.90;;;30.70;1.00;;;;;;6263976;22;20459;-82
2022/10/28 11:53:42;;;;;;;9.70;3.50;;;30.60;1.00;;;;;;6307594;22;20432;-83
2022/10/28 11:56:37;;;;;;;11.37;3.97;;;31.30;1.00;;;;;;6250091;22;20452;-83
2022/10/28 11:59:37;;;;;;;9.10;3.93;;;32.40;1.00;;;;;;6266819;22;20391;-81
2022/10/28 12:02:28;;;;;;;10.97;4.27;;;33.20;1.00;;;;;;6291345;22;20392;-81
2022/10/28 12:05:07;;;;;;;12.73;4.67;;;34.50;1.00;;;;;;6280591;22;20407;-80
2022/10/28 12:07:57;;;;;;;14.43;4.37;;;35.50;1.00;;;;;;6277745;22;20386;-80
2022/10/28 12:10:57;;;;;;;10.27;3.93;;;36.50;1.00;;;;;;6282872;22;20404;-83
2022/10/28 12:13:45;;;;;;;8.27;3.57;;;36.90;1.00;;;;;;6291350;22;20384;-86
2022/10/28 12:16:21;;;;;;;8.90;4.00;;;35.60;1.00;;;;;;6271057;22;20420;-82
2022/10/28 12:18:57;;;;;;;9.33;4.50;;;33.80;1.00;;;;;;6294691;22;20454;-83
2022/10/28 12:21:39;;;;;;;10.30;3.07;;;32.20;1.00;;;;;;6271326;22;20436;-86
2022/10/28 12:24:18;;;;;;;10.90;3.83;;;31.20;1.00;;;;;;6291978;22;20395;-84
2022/10/28 12:26:52;;;;;;;11.57;4.13;;;30.70;1.00;;;;;;6253015;22;20396;-84
2022/10/28 12:29:25;;;;;;;9.97;3.73;;;30.70;1.00;;;;;;6273104;22;20371;-84
2022/10/28 12:32:00;;;;;;;8.80;4.20;;;31.30;1.00;;;;;;6274921;22;20427;-81
2022/10/28 12:34:39;;;;;;;9.00;3.93;;;31.60;1.00;;;;;;6292255;22;20391;-81
2022/10/28 12:37:11;;;;;;;8.47;3.97;;;31.90;1.00;;;;;;6265245;22;20453;-83
2022/10/28 12:39:51;;;;;;;7.80;3.80;;;31.50;1.00;;;;;;6274895;22;20420;-84
2022/10/28 12:42:21;;;;;;;9.50;3.50;;;30.90;1.00;;;;;;6275068;22;20431;-81
2022/10/28 12:44:52;;;;;;;8.43;3.57;;;30.50;1.00;;;;;;6259048;22;20388;-82
2022/10/28 12:47:51;;;;;;;8.83;3.80;;;29.70;1.00;;;;;;6292420;22;20547;-85
2022/10/28 12:50:38;;;;;;;11.10;4.33;;;29.00;1.00;;;;;;6278652;22;21611;-81
2022/10/28 12:53:37;;;;;;;9.10;3.87;;;28.50;1.00;;;;;;6292459;22;20419;-86
2022/10/28 12:56:29;;;;;;;9.30;3.70;;;28.10;1.00;;;;;;6315992;22;20405;-86
2022/10/28 12:59:08;;;;;;;12.10;4.13;;;28.00;1.00;;;;;;6312070;22;20411;-83
2022/10/28 13:01:37;;;;;;;8.50;3.60;;;28.30;1.00;;;;;;6311523;22;20398;-84
2022/10/28 13:04:12;;;;;;;10.43;4.10;;;29.70;1.00;;;;;;6321381;22;20451;-84
2022/10/28 13:06:58;;;;;;;9.87;4.00;;;31.00;1.00;;;;;;6319498;22;20430;-85
2022/10/28 13:09:41;;;;;;;8.40;3.67;;;31.30;1.00;;;;;;6317266;22;20777;-86
2022/10/28 13:12:27;;;;;;;9.90;3.30;;;30.50;1.00;;;;;;6317728;22;21025;-86
2022/10/28 13:15:33;;;;;;;12.17;4.00;;;29.80;1.00;;;;;;6292712;22;20492;-86
2022/10/28 13:18:26;;;;;;;16.00;6.30;;;29.20;1.00;;;;;;6230024;22;20411;-84
2022/10/28 13:21:04;;;;;;;9.70;4.07;;;28.70;1.00;;;;;;6309747;22;20430;-87